sensor_id;sensor_type;location;lat;lon;timestamp;P1;durP1;ratioP1;P2;durP2;ratioP2
4616;SDS011;2321;42.704;23.384;2023-06-22T00:00:48;1034.10;;;653.93;;
4616;SDS011;2321;42.704;23.384;2023-06-22T00:03:16;1060.30;;;708.33;;
4616;SDS011;2321;42.704;23.384;2023-06-22T00:05:45;1051.30;;;687.23;;
4616;SDS011;2321;42.704;23.384;2023-06-22T00:08:12;1033.93;;;674.23;;
4616;SDS011;2321;42.704;23.384;2023-06-22T00:10:39;1049.37;;;703.17;;
4616;SDS011;2321;42.704;23.384;2023-06-22T00:13:07;1027.67;;;627.87;;
4616;SDS011;2321;42.704;23.384;2023-06-22T00:15:34;1026.03;;;637.40;;
4616;SDS011;2321;42.704;23.384;2023-06-22T00:18:01;1057.57;;;716.10;;
4616;SDS011;2321;42.704;23.384;2023-06-22T00:20:28;1046.07;;;688.27;;
4616;SDS011;2321;42.704;23.384;2023-06-22T00:22:57;1048.70;;;727.53;;
4616;SDS011;2321;42.704;23.384;2023-06-22T00:25:24;1036.63;;;663.73;;
4616;SDS011;2321;42.704;23.384;2023-06-22T00:27:52;1019.43;;;623.53;;
4616;SDS011;2321;42.704;23.384;2023-06-22T00:30:18;1045.87;;;676.30;;
4616;SDS011;2321;42.704;23.384;2023-06-22T00:32:45;1044.17;;;674.07;;
4616;SDS011;2321;42.704;23.384;2023-06-22T00:35:12;1067.80;;;764.50;;
4616;SDS011;2321;42.704;23.384;2023-06-22T00:37:39;1058.03;;;728.80;;
4616;SDS011;2321;42.704;23.384;2023-06-22T00:40:10;1051.07;;;702.37;;
4616;SDS011;2321;42.704;23.384;2023-06-22T00:42:38;1027.37;;;642.87;;
4616;SDS011;2321;42.704;23.384;2023-06-22T00:45:06;1050.57;;;678.37;;
4616;SDS011;2321;42.704;23.384;2023-06-22T00:47:34;1079.57;;;738.87;;
4616;SDS011;2321;42.704;23.384;2023-06-22T00:50:02;1050.73;;;690.47;;
4616;SDS011;2321;42.704;23.384;2023-06-22T00:52:32;1033.53;;;643.33;;
4616;SDS011;2321;42.704;23.384;2023-06-22T00:55:00;1046.43;;;679.17;;
4616;SDS011;2321;42.704;23.384;2023-06-22T00:57:30;1044.10;;;677.30;;
4616;SDS011;2321;42.704;23.384;2023-06-22T00:59:57;1055.13;;;708.07;;
4616;SDS011;2321;42.704;23.384;2023-06-22T01:02:24;1058.20;;;693.67;;
4616;SDS011;2321;42.704;23.384;2023-06-22T01:04:51;1054.60;;;682.17;;
4616;SDS011;2321;42.704;23.384;2023-06-22T01:07:21;1053.83;;;703.53;;
4616;SDS011;2321;42.704;23.384;2023-06-22T01:09:57;1028.17;;;617.00;;
4616;SDS011;2321;42.704;23.384;2023-06-22T01:12:32;1052.83;;;699.10;;
4616;SDS011;2321;42.704;23.384;2023-06-22T01:15:08;1047.70;;;659.60;;
4616;SDS011;2321;42.704;23.384;2023-06-22T01:17:40;1060.33;;;707.43;;
4616;SDS011;2321;42.704;23.384;2023-06-22T01:20:10;1053.80;;;706.93;;
4616;SDS011;2321;42.704;23.384;2023-06-22T01:22:44;1032.93;;;651.97;;
4616;SDS011;2321;42.704;23.384;2023-06-22T01:25:26;1027.37;;;628.80;;
4616;SDS011;2321;42.704;23.384;2023-06-22T01:28:03;1019.20;;;605.07;;
4616;SDS011;2321;42.704;23.384;2023-06-22T01:30:47;1017.40;;;597.60;;
4616;SDS011;2321;42.704;23.384;2023-06-22T01:33:15;1034.53;;;656.20;;
4616;SDS011;2321;42.704;23.384;2023-06-22T01:35:43;1021.17;;;607.03;;
4616;SDS011;2321;42.704;23.384;2023-06-22T01:38:10;1039.27;;;652.77;;
4616;SDS011;2321;42.704;23.384;2023-06-22T01:40:37;1066.90;;;703.53;;
4616;SDS011;2321;42.704;23.384;2023-06-22T01:43:04;1039.67;;;674.07;;
4616;SDS011;2321;42.704;23.384;2023-06-22T01:45:32;1055.67;;;714.30;;
4616;SDS011;2321;42.704;23.384;2023-06-22T01:48:00;1054.57;;;717.63;;
4616;SDS011;2321;42.704;23.384;2023-06-22T01:50:28;1045.10;;;679.73;;
4616;SDS011;2321;42.704;23.384;2023-06-22T01:52:55;1040.37;;;659.13;;
4616;SDS011;2321;42.704;23.384;2023-06-22T01:55:22;1047.60;;;669.97;;
4616;SDS011;2321;42.704;23.384;2023-06-22T01:57:49;1013.97;;;604.57;;
4616;SDS011;2321;42.704;23.384;2023-06-22T02:00:18;1056.33;;;715.23;;
4616;SDS011;2321;42.704;23.384;2023-06-22T02:02:51;1051.53;;;676.43;;
4616;SDS011;2321;42.704;23.384;2023-06-22T02:05:24;1033.70;;;666.70;;
4616;SDS011;2321;42.704;23.384;2023-06-22T02:07:56;1033.30;;;616.47;;
4616;SDS011;2321;42.704;23.384;2023-06-22T02:10:28;1022.50;;;627.10;;
4616;SDS011;2321;42.704;23.384;2023-06-22T02:12:56;1022.63;;;633.60;;
4616;SDS011;2321;42.704;23.384;2023-06-22T02:15:24;1098.13;;;659.03;;
4616;SDS011;2321;42.704;23.384;2023-06-22T02:17:51;1078.93;;;665.63;;
4616;SDS011;2321;42.704;23.384;2023-06-22T02:20:19;1053.37;;;688.30;;
4616;SDS011;2321;42.704;23.384;2023-06-22T02:22:47;1037.93;;;676.93;;
4616;SDS011;2321;42.704;23.384;2023-06-22T02:25:14;1020.83;;;607.80;;
4616;SDS011;2321;42.704;23.384;2023-06-22T02:27:41;1010.10;;;599.57;;
4616;SDS011;2321;42.704;23.384;2023-06-22T02:30:08;1028.00;;;652.40;;
4616;SDS011;2321;42.704;23.384;2023-06-22T02:32:36;1004.93;;;592.80;;
4616;SDS011;2321;42.704;23.384;2023-06-22T02:35:07;1041.13;;;721.10;;
4616;SDS011;2321;42.704;23.384;2023-06-22T02:37:35;1061.53;;;713.33;;
4616;SDS011;2321;42.704;23.384;2023-06-22T02:40:06;1018.33;;;631.07;;
4616;SDS011;2321;42.704;23.384;2023-06-22T02:42:34;1048.30;;;672.73;;
4616;SDS011;2321;42.704;23.384;2023-06-22T02:45:01;1032.97;;;680.33;;
4616;SDS011;2321;42.704;23.384;2023-06-22T02:47:29;1088.80;;;734.33;;
4616;SDS011;2321;42.704;23.384;2023-06-22T02:49:56;1021.27;;;646.63;;
4616;SDS011;2321;42.704;23.384;2023-06-22T02:52:22;998.33;;;580.17;;
4616;SDS011;2321;42.704;23.384;2023-06-22T02:54:49;1016.73;;;634.13;;
4616;SDS011;2321;42.704;23.384;2023-06-22T02:57:17;1004.13;;;594.53;;
4616;SDS011;2321;42.704;23.384;2023-06-22T02:59:44;1000.57;;;586.07;;
4616;SDS011;2321;42.704;23.384;2023-06-22T03:02:11;1033.87;;;698.67;;
4616;SDS011;2321;42.704;23.384;2023-06-22T03:04:38;1010.90;;;624.87;;
4616;SDS011;2321;42.704;23.384;2023-06-22T03:07:05;1017.10;;;633.40;;
4616;SDS011;2321;42.704;23.384;2023-06-22T03:09:32;1015.67;;;632.90;;
4616;SDS011;2321;42.704;23.384;2023-06-22T03:11:59;1018.77;;;635.73;;
4616;SDS011;2321;42.704;23.384;2023-06-22T03:14:28;996.07;;;569.77;;
4616;SDS011;2321;42.704;23.384;2023-06-22T03:16:55;1019.67;;;636.23;;
4616;SDS011;2321;42.704;23.384;2023-06-22T03:19:26;1017.40;;;621.77;;
4616;SDS011;2321;42.704;23.384;2023-06-22T03:21:54;1001.80;;;582.10;;
4616;SDS011;2321;42.704;23.384;2023-06-22T03:24:21;995.03;;;549.93;;
4616;SDS011;2321;42.704;23.384;2023-06-22T03:26:48;1020.73;;;626.57;;
4616;SDS011;2321;42.704;23.384;2023-06-22T03:29:15;999.97;;;557.07;;
4616;SDS011;2321;42.704;23.384;2023-06-22T03:31:43;1002.07;;;570.03;;
4616;SDS011;2321;42.704;23.384;2023-06-22T03:34:10;1049.47;;;653.30;;
4616;SDS011;2321;42.704;23.384;2023-06-22T03:36:37;1073.27;;;629.97;;
4616;SDS011;2321;42.704;23.384;2023-06-22T03:39:03;1083.93;;;694.80;;
4616;SDS011;2321;42.704;23.384;2023-06-22T03:41:30;1095.60;;;697.67;;
4616;SDS011;2321;42.704;23.384;2023-06-22T03:43:57;1104.70;;;548.93;;
4616;SDS011;2321;42.704;23.384;2023-06-22T03:46:24;1086.10;;;300.30;;
4616;SDS011;2321;42.704;23.384;2023-06-22T03:48:52;1083.83;;;353.60;;
4616;SDS011;2321;42.704;23.384;2023-06-22T03:51:19;1103.97;;;579.50;;
4616;SDS011;2321;42.704;23.384;2023-06-22T03:53:46;1060.97;;;661.07;;
4616;SDS011;2321;42.704;23.384;2023-06-22T03:56:13;1045.67;;;627.47;;
4616;SDS011;2321;42.704;23.384;2023-06-22T03:58:45;1066.53;;;725.90;;
4616;SDS011;2321;42.704;23.384;2023-06-22T04:01:12;1095.67;;;514.13;;
4616;SDS011;2321;42.704;23.384;2023-06-22T04:03:39;1025.03;;;303.90;;
4616;SDS011;2321;42.704;23.384;2023-06-22T04:06:08;1005.50;;;308.10;;
4616;SDS011;2321;42.704;23.384;2023-06-22T04:08:35;1032.03;;;293.20;;
4616;SDS011;2321;42.704;23.384;2023-06-22T04:11:02;1002.23;;;279.27;;
4616;SDS011;2321;42.704;23.384;2023-06-22T04:13:30;1074.73;;;286.77;;
4616;SDS011;2321;42.704;23.384;2023-06-22T04:15:57;1005.33;;;291.73;;
4616;SDS011;2321;42.704;23.384;2023-06-22T04:18:23;953.00;;;276.70;;
4616;SDS011;2321;42.704;23.384;2023-06-22T04:20:50;1130.40;;;562.53;;
4616;SDS011;2321;42.704;23.384;2023-06-22T04:23:18;1102.63;;;401.43;;
4616;SDS011;2321;42.704;23.384;2023-06-22T04:25:45;1092.60;;;326.97;;
4616;SDS011;2321;42.704;23.384;2023-06-22T04:28:12;999.37;;;268.90;;
4616;SDS011;2321;42.704;23.384;2023-06-22T04:30:39;938.57;;;281.90;;
4616;SDS011;2321;42.704;23.384;2023-06-22T04:33:11;1013.63;;;287.30;;
4616;SDS011;2321;42.704;23.384;2023-06-22T04:35:38;830.97;;;210.60;;
4616;SDS011;2321;42.704;23.384;2023-06-22T04:38:06;1055.70;;;315.37;;
4616;SDS011;2321;42.704;23.384;2023-06-22T04:40:35;1018.07;;;312.70;;
4616;SDS011;2321;42.704;23.384;2023-06-22T04:43:02;935.80;;;255.37;;
4616;SDS011;2321;42.704;23.384;2023-06-22T04:45:29;1019.50;;;345.63;;
4616;SDS011;2321;42.704;23.384;2023-06-22T04:47:55;1022.70;;;527.23;;
4616;SDS011;2321;42.704;23.384;2023-06-22T04:50:22;983.47;;;283.73;;
4616;SDS011;2321;42.704;23.384;2023-06-22T04:52:49;901.00;;;264.33;;
4616;SDS011;2321;42.704;23.384;2023-06-22T04:55:17;903.40;;;251.73;;
4616;SDS011;2321;42.704;23.384;2023-06-22T04:57:46;853.13;;;257.27;;
4616;SDS011;2321;42.704;23.384;2023-06-22T05:00:14;908.33;;;304.73;;
4616;SDS011;2321;42.704;23.384;2023-06-22T05:02:43;938.03;;;281.93;;
4616;SDS011;2321;42.704;23.384;2023-06-22T05:05:10;998.50;;;291.90;;
4616;SDS011;2321;42.704;23.384;2023-06-22T05:07:39;943.00;;;289.70;;
4616;SDS011;2321;42.704;23.384;2023-06-22T05:10:09;917.67;;;279.53;;
4616;SDS011;2321;42.704;23.384;2023-06-22T05:12:37;1024.83;;;278.47;;
4616;SDS011;2321;42.704;23.384;2023-06-22T05:15:06;1034.27;;;318.77;;
4616;SDS011;2321;42.704;23.384;2023-06-22T05:17:34;869.77;;;275.73;;
4616;SDS011;2321;42.704;23.384;2023-06-22T05:20:01;834.10;;;262.10;;
4616;SDS011;2321;42.704;23.384;2023-06-22T05:22:31;810.90;;;260.20;;
4616;SDS011;2321;42.704;23.384;2023-06-22T05:24:58;752.43;;;220.20;;
4616;SDS011;2321;42.704;23.384;2023-06-22T05:27:25;778.57;;;246.50;;
4616;SDS011;2321;42.704;23.384;2023-06-22T05:29:52;834.87;;;270.73;;
4616;SDS011;2321;42.704;23.384;2023-06-22T05:32:20;844.10;;;258.13;;
4616;SDS011;2321;42.704;23.384;2023-06-22T05:34:47;780.17;;;234.87;;
4616;SDS011;2321;42.704;23.384;2023-06-22T05:37:14;815.60;;;228.70;;
4616;SDS011;2321;42.704;23.384;2023-06-22T05:39:40;814.90;;;231.10;;
4616;SDS011;2321;42.704;23.384;2023-06-22T05:42:07;775.53;;;233.20;;
4616;SDS011;2321;42.704;23.384;2023-06-22T05:44:34;976.53;;;357.33;;
4616;SDS011;2321;42.704;23.384;2023-06-22T05:47:02;976.60;;;345.93;;
4616;SDS011;2321;42.704;23.384;2023-06-22T05:49:31;1032.77;;;361.90;;
4616;SDS011;2321;42.704;23.384;2023-06-22T05:51:58;926.27;;;263.50;;
4616;SDS011;2321;42.704;23.384;2023-06-22T05:54:26;974.60;;;323.30;;
4616;SDS011;2321;42.704;23.384;2023-06-22T05:56:53;944.27;;;331.53;;
4616;SDS011;2321;42.704;23.384;2023-06-22T05:59:20;799.67;;;253.17;;
4616;SDS011;2321;42.704;23.384;2023-06-22T06:01:47;948.70;;;345.80;;
4616;SDS011;2321;42.704;23.384;2023-06-22T06:04:15;907.83;;;300.13;;
4616;SDS011;2321;42.704;23.384;2023-06-22T06:06:44;823.63;;;290.80;;
4616;SDS011;2321;42.704;23.384;2023-06-22T06:09:12;1045.43;;;325.80;;
4616;SDS011;2321;42.704;23.384;2023-06-22T06:11:39;1100.67;;;491.40;;
4616;SDS011;2321;42.704;23.384;2023-06-22T06:14:06;1127.07;;;580.07;;
4616;SDS011;2321;42.704;23.384;2023-06-22T06:16:33;1143.27;;;764.53;;
4616;SDS011;2321;42.704;23.384;2023-06-22T06:19:00;1062.27;;;402.80;;
4616;SDS011;2321;42.704;23.384;2023-06-22T06:21:26;1012.67;;;394.80;;
4616;SDS011;2321;42.704;23.384;2023-06-22T06:23:55;916.87;;;313.17;;
4616;SDS011;2321;42.704;23.384;2023-06-22T06:26:22;842.33;;;285.57;;
4616;SDS011;2321;42.704;23.384;2023-06-22T06:28:53;972.07;;;350.20;;
4616;SDS011;2321;42.704;23.384;2023-06-22T06:31:20;990.57;;;376.93;;
4616;SDS011;2321;42.704;23.384;2023-06-22T06:33:48;910.33;;;345.93;;
4616;SDS011;2321;42.704;23.384;2023-06-22T06:36:15;1060.07;;;376.10;;
4616;SDS011;2321;42.704;23.384;2023-06-22T06:38:42;1109.37;;;479.53;;
4616;SDS011;2321;42.704;23.384;2023-06-22T06:41:10;1132.73;;;868.70;;
4616;SDS011;2321;42.704;23.384;2023-06-22T06:43:37;1161.80;;;947.17;;
4616;SDS011;2321;42.704;23.384;2023-06-22T06:46:04;1148.60;;;895.07;;
4616;SDS011;2321;42.704;23.384;2023-06-22T06:48:30;1138.23;;;872.33;;
4616;SDS011;2321;42.704;23.384;2023-06-22T06:50:57;1141.67;;;682.80;;
4616;SDS011;2321;42.704;23.384;2023-06-22T06:53:24;1150.10;;;755.00;;
4616;SDS011;2321;42.704;23.384;2023-06-22T06:55:52;1149.10;;;789.13;;
4616;SDS011;2321;42.704;23.384;2023-06-22T06:58:20;1110.07;;;672.03;;
4616;SDS011;2321;42.704;23.384;2023-06-22T07:00:48;1155.13;;;834.87;;
4616;SDS011;2321;42.704;23.384;2023-06-22T07:03:15;1117.37;;;829.43;;
4616;SDS011;2321;42.704;23.384;2023-06-22T07:05:41;1152.60;;;858.20;;
4616;SDS011;2321;42.704;23.384;2023-06-22T07:08:08;1165.33;;;934.20;;
4616;SDS011;2321;42.704;23.384;2023-06-22T07:10:36;1177.33;;;865.07;;
4616;SDS011;2321;42.704;23.384;2023-06-22T07:13:03;1109.20;;;909.03;;
4616;SDS011;2321;42.704;23.384;2023-06-22T07:15:42;1122.53;;;920.63;;
4616;SDS011;2321;42.704;23.384;2023-06-22T07:18:13;1081.20;;;857.67;;
4616;SDS011;2321;42.704;23.384;2023-06-22T07:20:41;1139.53;;;989.97;;
4616;SDS011;2321;42.704;23.384;2023-06-22T07:23:08;1098.47;;;907.07;;
4616;SDS011;2321;42.704;23.384;2023-06-22T07:25:42;1071.00;;;839.70;;
4616;SDS011;2321;42.704;23.384;2023-06-22T07:28:14;1088.43;;;888.03;;
4616;SDS011;2321;42.704;23.384;2023-06-22T07:30:43;1121.67;;;951.10;;
4616;SDS011;2321;42.704;23.384;2023-06-22T07:33:24;1142.87;;;998.17;;
4616;SDS011;2321;42.704;23.384;2023-06-22T07:35:52;1148.73;;;998.17;;
4616;SDS011;2321;42.704;23.384;2023-06-22T07:38:22;1147.10;;;985.63;;
4616;SDS011;2321;42.704;23.384;2023-06-22T07:40:58;1194.23;;;988.53;;
4616;SDS011;2321;42.704;23.384;2023-06-22T07:43:25;1161.47;;;934.23;;
4616;SDS011;2321;42.704;23.384;2023-06-22T07:45:53;1204.73;;;999.90;;
4616;SDS011;2321;42.704;23.384;2023-06-22T07:48:20;1127.37;;;931.60;;
4616;SDS011;2321;42.704;23.384;2023-06-22T07:50:47;1201.57;;;999.90;;
4616;SDS011;2321;42.704;23.384;2023-06-22T07:53:14;1167.00;;;886.37;;
4616;SDS011;2321;42.704;23.384;2023-06-22T07:55:41;1138.33;;;879.60;;
4616;SDS011;2321;42.704;23.384;2023-06-22T07:58:08;1205.17;;;997.13;;
4616;SDS011;2321;42.704;23.384;2023-06-22T08:00:37;1198.73;;;997.63;;
4616;SDS011;2321;42.704;23.384;2023-06-22T08:03:06;1185.70;;;999.90;;
4616;SDS011;2321;42.704;23.384;2023-06-22T08:05:33;1111.30;;;817.47;;
4616;SDS011;2321;42.704;23.384;2023-06-22T08:08:00;1174.33;;;912.53;;
4616;SDS011;2321;42.704;23.384;2023-06-22T08:10:27;1143.67;;;844.70;;
4616;SDS011;2321;42.704;23.384;2023-06-22T08:12:54;1153.07;;;999.90;;
4616;SDS011;2321;42.704;23.384;2023-06-22T08:15:21;1207.77;;;999.90;;
4616;SDS011;2321;42.704;23.384;2023-06-22T08:17:50;1158.13;;;999.90;;
4616;SDS011;2321;42.704;23.384;2023-06-22T08:20:20;1205.87;;;999.90;;
4616;SDS011;2321;42.704;23.384;2023-06-22T08:22:47;1195.07;;;986.23;;
4616;SDS011;2321;42.704;23.384;2023-06-22T08:25:14;1155.27;;;952.67;;
4616;SDS011;2321;42.704;23.384;2023-06-22T08:27:42;1142.00;;;919.57;;
4616;SDS011;2321;42.704;23.384;2023-06-22T08:30:11;1189.13;;;999.90;;
4616;SDS011;2321;42.704;23.384;2023-06-22T08:32:38;1179.03;;;994.90;;
4616;SDS011;2321;42.704;23.384;2023-06-22T08:35:06;1168.43;;;999.90;;
4616;SDS011;2321;42.704;23.384;2023-06-22T08:37:34;1119.40;;;941.27;;
4616;SDS011;2321;42.704;23.384;2023-06-22T08:40:02;1150.27;;;999.90;;
4616;SDS011;2321;42.704;23.384;2023-06-22T08:42:30;1160.60;;;999.90;;
4616;SDS011;2321;42.704;23.384;2023-06-22T08:44:57;1159.57;;;999.90;;
4616;SDS011;2321;42.704;23.384;2023-06-22T08:47:24;1197.10;;;999.90;;
4616;SDS011;2321;42.704;23.384;2023-06-22T08:49:51;1143.87;;;939.40;;
4616;SDS011;2321;42.704;23.384;2023-06-22T08:52:18;1164.83;;;990.60;;
4616;SDS011;2321;42.704;23.384;2023-06-22T08:54:46;1153.33;;;980.13;;
4616;SDS011;2321;42.704;23.384;2023-06-22T08:57:13;1206.00;;;999.90;;
4616;SDS011;2321;42.704;23.384;2023-06-22T08:59:40;1162.07;;;981.57;;
4616;SDS011;2321;42.704;23.384;2023-06-22T09:02:07;1156.43;;;999.90;;
4616;SDS011;2321;42.704;23.384;2023-06-22T09:04:34;1131.53;;;937.07;;
4616;SDS011;2321;42.704;23.384;2023-06-22T09:07:01;1117.33;;;923.07;;
4616;SDS011;2321;42.704;23.384;2023-06-22T09:09:28;1135.90;;;961.33;;
4616;SDS011;2321;42.704;23.384;2023-06-22T09:11:56;1186.03;;;999.90;;
4616;SDS011;2321;42.704;23.384;2023-06-22T09:14:23;1115.13;;;952.47;;
4616;SDS011;2321;42.704;23.384;2023-06-22T09:16:50;1180.73;;;999.90;;
4616;SDS011;2321;42.704;23.384;2023-06-22T09:19:17;1091.80;;;907.73;;
4616;SDS011;2321;42.704;23.384;2023-06-22T09:21:44;1156.30;;;997.30;;
4616;SDS011;2321;42.704;23.384;2023-06-22T09:24:10;1192.50;;;999.90;;
4616;SDS011;2321;42.704;23.384;2023-06-22T09:26:37;1148.60;;;992.33;;
4616;SDS011;2321;42.704;23.384;2023-06-22T09:29:06;1163.00;;;999.90;;
4616;SDS011;2321;42.704;23.384;2023-06-22T09:31:33;1093.80;;;896.23;;
4616;SDS011;2321;42.704;23.384;2023-06-22T09:33:59;1122.50;;;953.90;;
4616;SDS011;2321;42.704;23.384;2023-06-22T09:36:26;1165.73;;;999.90;;
4616;SDS011;2321;42.704;23.384;2023-06-22T09:38:53;1162.03;;;999.90;;
4616;SDS011;2321;42.704;23.384;2023-06-22T09:41:23;1156.23;;;999.80;;
4616;SDS011;2321;42.704;23.384;2023-06-22T09:43:51;1130.70;;;974.23;;
4616;SDS011;2321;42.704;23.384;2023-06-22T09:46:19;1220.47;;;999.90;;
4616;SDS011;2321;42.704;23.384;2023-06-22T09:48:50;1114.07;;;924.53;;
4616;SDS011;2321;42.704;23.384;2023-06-22T09:51:17;1144.50;;;968.03;;
4616;SDS011;2321;42.704;23.384;2023-06-22T09:53:45;1136.50;;;975.67;;
4616;SDS011;2321;42.704;23.384;2023-06-22T09:56:11;1145.47;;;980.90;;
4616;SDS011;2321;42.704;23.384;2023-06-22T09:58:40;1119.47;;;981.93;;
4616;SDS011;2321;42.704;23.384;2023-06-22T10:01:07;1145.70;;;973.53;;
4616;SDS011;2321;42.704;23.384;2023-06-22T10:03:36;1139.27;;;996.87;;
4616;SDS011;2321;42.704;23.384;2023-06-22T10:06:03;1125.00;;;948.93;;
4616;SDS011;2321;42.704;23.384;2023-06-22T10:08:30;1133.17;;;967.70;;
4616;SDS011;2321;42.704;23.384;2023-06-22T10:10:57;1102.23;;;859.20;;
4616;SDS011;2321;42.704;23.384;2023-06-22T10:13:24;1142.60;;;962.13;;
4616;SDS011;2321;42.704;23.384;2023-06-22T10:15:51;1117.77;;;923.50;;
4616;SDS011;2321;42.704;23.384;2023-06-22T10:18:18;1151.80;;;970.13;;
4616;SDS011;2321;42.704;23.384;2023-06-22T10:20:48;1144.30;;;999.90;;
4616;SDS011;2321;42.704;23.384;2023-06-22T10:23:16;1041.23;;;644.33;;
4616;SDS011;2321;42.704;23.384;2023-06-22T10:25:43;1116.00;;;944.93;;
4616;SDS011;2321;42.704;23.384;2023-06-22T10:28:10;1160.57;;;999.90;;
4616;SDS011;2321;42.704;23.384;2023-06-22T10:30:37;1136.67;;;997.53;;
4616;SDS011;2321;42.704;23.384;2023-06-22T10:33:06;1111.73;;;933.53;;
4616;SDS011;2321;42.704;23.384;2023-06-22T10:35:33;1134.47;;;993.90;;
4616;SDS011;2321;42.704;23.384;2023-06-22T10:38:01;1143.27;;;928.20;;
4616;SDS011;2321;42.704;23.384;2023-06-22T10:40:28;1107.03;;;846.30;;
4616;SDS011;2321;42.704;23.384;2023-06-22T10:42:55;1256.20;;;999.90;;
4616;SDS011;2321;42.704;23.384;2023-06-22T10:45:22;1110.33;;;979.33;;
4616;SDS011;2321;42.704;23.384;2023-06-22T10:47:49;1114.10;;;869.77;;
4616;SDS011;2321;42.704;23.384;2023-06-22T10:50:15;1108.20;;;954.57;;
4616;SDS011;2321;42.704;23.384;2023-06-22T10:52:42;1173.43;;;999.90;;
4616;SDS011;2321;42.704;23.384;2023-06-22T10:55:11;1128.13;;;997.27;;
4616;SDS011;2321;42.704;23.384;2023-06-22T10:57:37;1178.97;;;999.90;;
4616;SDS011;2321;42.704;23.384;2023-06-22T11:00:08;1185.17;;;999.90;;
4616;SDS011;2321;42.704;23.384;2023-06-22T11:02:36;1128.13;;;956.17;;
4616;SDS011;2321;42.704;23.384;2023-06-22T11:05:03;1218.23;;;999.90;;
4616;SDS011;2321;42.704;23.384;2023-06-22T11:07:31;1230.33;;;999.90;;
4616;SDS011;2321;42.704;23.384;2023-06-22T11:09:58;1205.23;;;999.90;;
4616;SDS011;2321;42.704;23.384;2023-06-22T11:12:26;1184.30;;;999.90;;
4616;SDS011;2321;42.704;23.384;2023-06-22T11:14:53;1223.27;;;999.90;;
4616;SDS011;2321;42.704;23.384;2023-06-22T11:17:22;1209.07;;;999.90;;
4616;SDS011;2321;42.704;23.384;2023-06-22T11:19:49;1189.20;;;999.90;;
4616;SDS011;2321;42.704;23.384;2023-06-22T11:22:16;1171.53;;;999.90;;
4616;SDS011;2321;42.704;23.384;2023-06-22T11:24:42;1116.53;;;988.80;;
4616;SDS011;2321;42.704;23.384;2023-06-22T11:27:09;1136.90;;;955.47;;
4616;SDS011;2321;42.704;23.384;2023-06-22T11:29:38;1146.07;;;964.73;;
4616;SDS011;2321;42.704;23.384;2023-06-22T11:32:05;1151.90;;;999.90;;
4616;SDS011;2321;42.704;23.384;2023-06-22T11:34:33;1099.57;;;972.57;;
4616;SDS011;2321;42.704;23.384;2023-06-22T11:37:00;1214.70;;;999.90;;
4616;SDS011;2321;42.704;23.384;2023-06-22T11:39:27;1048.70;;;905.60;;
4616;SDS011;2321;42.704;23.384;2023-06-22T11:41:54;1118.63;;;991.87;;
4616;SDS011;2321;42.704;23.384;2023-06-22T11:44:20;1098.73;;;927.87;;
4616;SDS011;2321;42.704;23.384;2023-06-22T11:46:49;1070.83;;;875.70;;
4616;SDS011;2321;42.704;23.384;2023-06-22T11:49:16;1072.80;;;901.50;;
4616;SDS011;2321;42.704;23.384;2023-06-22T11:51:42;1081.63;;;962.27;;
4616;SDS011;2321;42.704;23.384;2023-06-22T11:54:09;979.23;;;726.27;;
4616;SDS011;2321;42.704;23.384;2023-06-22T11:56:36;1085.93;;;937.97;;
4616;SDS011;2321;42.704;23.384;2023-06-22T11:59:03;1250.97;;;999.90;;
4616;SDS011;2321;42.704;23.384;2023-06-22T12:01:30;1125.07;;;992.00;;
4616;SDS011;2321;42.704;23.384;2023-06-22T12:03:59;1193.67;;;999.90;;
4616;SDS011;2321;42.704;23.384;2023-06-22T12:06:26;968.27;;;793.63;;
4616;SDS011;2321;42.704;23.384;2023-06-22T12:08:53;967.23;;;623.23;;
4616;SDS011;2321;42.704;23.384;2023-06-22T12:11:20;952.20;;;668.03;;
4616;SDS011;2321;42.704;23.384;2023-06-22T12:13:47;838.57;;;488.77;;
4616;SDS011;2321;42.704;23.384;2023-06-22T12:16:13;846.03;;;486.07;;
4616;SDS011;2321;42.704;23.384;2023-06-22T12:18:40;832.67;;;470.33;;
4616;SDS011;2321;42.704;23.384;2023-06-22T12:21:08;844.53;;;489.30;;
4616;SDS011;2321;42.704;23.384;2023-06-22T12:23:35;846.97;;;540.50;;
4616;SDS011;2321;42.704;23.384;2023-06-22T12:26:02;833.17;;;479.57;;
4616;SDS011;2321;42.704;23.384;2023-06-22T12:28:29;865.77;;;482.10;;
4616;SDS011;2321;42.704;23.384;2023-06-22T12:30:56;893.80;;;489.47;;
4616;SDS011;2321;42.704;23.384;2023-06-22T12:33:23;811.80;;;387.40;;
4616;SDS011;2321;42.704;23.384;2023-06-22T12:35:49;844.80;;;489.33;;
4616;SDS011;2321;42.704;23.384;2023-06-22T12:38:18;786.90;;;367.03;;
4616;SDS011;2321;42.704;23.384;2023-06-22T12:40:45;834.00;;;475.87;;
4616;SDS011;2321;42.704;23.384;2023-06-22T12:43:12;847.77;;;413.80;;
4616;SDS011;2321;42.704;23.384;2023-06-22T12:45:39;799.43;;;336.63;;
4616;SDS011;2321;42.704;23.384;2023-06-22T12:48:06;810.07;;;383.10;;
4616;SDS011;2321;42.704;23.384;2023-06-22T12:50:33;821.93;;;346.23;;
4616;SDS011;2321;42.704;23.384;2023-06-22T12:53:00;836.97;;;427.27;;
4616;SDS011;2321;42.704;23.384;2023-06-22T12:55:30;798.37;;;332.10;;
4616;SDS011;2321;42.704;23.384;2023-06-22T12:57:57;806.40;;;365.87;;
4616;SDS011;2321;42.704;23.384;2023-06-22T13:00:24;783.40;;;347.73;;
4616;SDS011;2321;42.704;23.384;2023-06-22T13:02:51;846.37;;;451.17;;
4616;SDS011;2321;42.704;23.384;2023-06-22T13:05:18;855.83;;;389.17;;
4616;SDS011;2321;42.704;23.384;2023-06-22T13:07:45;805.10;;;342.23;;
4616;SDS011;2321;42.704;23.384;2023-06-22T13:10:12;837.63;;;394.13;;
4616;SDS011;2321;42.704;23.384;2023-06-22T13:12:40;836.13;;;397.80;;
4616;SDS011;2321;42.704;23.384;2023-06-22T13:15:07;858.40;;;455.03;;
4616;SDS011;2321;42.704;23.384;2023-06-22T13:17:34;833.83;;;406.47;;
4616;SDS011;2321;42.704;23.384;2023-06-22T13:20:01;847.10;;;410.93;;
4616;SDS011;2321;42.704;23.384;2023-06-22T13:22:30;922.67;;;457.00;;
4616;SDS011;2321;42.704;23.384;2023-06-22T13:24:58;835.63;;;394.13;;
4616;SDS011;2321;42.704;23.384;2023-06-22T13:27:25;1144.97;;;918.70;;
4616;SDS011;2321;42.704;23.384;2023-06-22T13:29:54;1193.23;;;999.90;;
4616;SDS011;2321;42.704;23.384;2023-06-22T13:32:20;1144.33;;;919.13;;
4616;SDS011;2321;42.704;23.384;2023-06-22T13:34:47;1154.80;;;899.73;;
4616;SDS011;2321;42.704;23.384;2023-06-22T13:37:14;859.80;;;431.63;;
4616;SDS011;2321;42.704;23.384;2023-06-22T13:39:41;877.00;;;399.83;;
4616;SDS011;2321;42.704;23.384;2023-06-22T13:42:08;905.67;;;562.60;;
4616;SDS011;2321;42.704;23.384;2023-06-22T13:44:35;886.37;;;450.53;;
4616;SDS011;2321;42.704;23.384;2023-06-22T13:47:04;858.57;;;413.50;;
4616;SDS011;2321;42.704;23.384;2023-06-22T13:49:32;838.73;;;392.37;;
4616;SDS011;2321;42.704;23.384;2023-06-22T13:51:59;838.37;;;382.70;;
4616;SDS011;2321;42.704;23.384;2023-06-22T13:54:26;927.80;;;468.93;;
4616;SDS011;2321;42.704;23.384;2023-06-22T13:56:52;879.70;;;444.13;;
4616;SDS011;2321;42.704;23.384;2023-06-22T13:59:19;870.63;;;497.47;;
4616;SDS011;2321;42.704;23.384;2023-06-22T14:01:46;881.00;;;488.20;;